Time;durP1;ratioP1;P1;durP2;ratioP2;P2;SDS_P1;SDS_P2;PMS_P1;PMS_P2;Temp;Humidity;BMP_temperature;BMP_pressure;BME280_temperature;BME280_humidity;BME280_pressure;Samples;Min_cycle;Max_cycle;Signal;HPM_P1;HPM_P2
2021/06/15 00:01:27;;;;;;;10.73;5.17;;;19.10;73.90;;;;;;5073311;28;20184;-75
2021/06/15 00:03:53;;;;;;;7.33;4.47;;;19.00;74.20;;;;;;5073713;28;20200;-75
2021/06/15 00:06:18;;;;;;;6.83;4.37;;;19.00;74.50;;;;;;5073223;28;20325;-74
2021/06/15 00:08:44;;;;;;;9.80;4.20;;;18.90;73.70;;;;;;5075022;28;20191;-75
2021/06/15 00:11:10;;;;;;;6.10;4.33;;;19.00;73.50;;;;;;5067282;28;20556;-75
2021/06/15 00:13:36;;;;;;;8.00;4.40;;;19.00;72.90;;;;;;5072326;28;20217;-74
2021/06/15 00:16:01;;;;;;;7.30;4.67;;;18.90;72.90;;;;;;5072951;28;20210;-75
2021/06/15 00:18:27;;;;;;;7.57;4.40;;;18.80;74.50;;;;;;5074375;28;20245;-75
2021/06/15 00:20:53;;;;;;;6.60;4.73;;;18.80;74.00;;;;;;5075507;28;20633;-75
2021/06/15 00:23:20;;;;;;;6.07;3.87;;;18.80;74.60;;;;;;5077343;28;20194;-74
2021/06/15 00:25:46;;;;;;;6.03;4.43;;;18.70;73.50;;;;;;5072858;28;20226;-75
2021/06/15 00:28:11;;;;;;;5.57;3.80;;;18.70;73.50;;;;;;5072814;28;20422;-77
2021/06/15 00:30:37;;;;;;;5.97;3.60;;;18.70;73.50;;;;;;5068834;28;20268;-76
2021/06/15 00:33:03;;;;;;;6.70;4.23;;;18.60;73.90;;;;;;5073402;28;20252;-74
2021/06/15 00:35:29;;;;;;;7.30;4.67;;;18.60;74.00;;;;;;5073183;28;20265;-75
2021/06/15 00:37:55;;;;;;;7.47;4.07;;;18.60;74.20;;;;;;5072343;28;20468;-76
2021/06/15 00:40:21;;;;;;;7.37;4.77;;;18.60;74.30;;;;;;5072887;28;20184;-74
2021/06/15 00:42:47;;;;;;;7.80;4.20;;;18.50;74.60;;;;;;5072215;28;20195;-75
2021/06/15 00:45:15;;;;;;;5.87;4.27;;;18.50;74.90;;;;;;5073148;28;20448;-75
2021/06/15 00:47:47;;;;;;;6.57;4.00;;;18.50;74.50;;;;;;5072494;28;20217;-74
2021/06/15 00:50:14;;;;;;;6.47;3.80;;;18.50;74.60;;;;;;5065639;28;20435;-76
2021/06/15 00:52:40;;;;;;;6.87;4.73;;;18.50;74.80;;;;;;5069413;28;20432;-75
2021/06/15 00:55:07;;;;;;;8.17;5.00;;;18.50;76.20;;;;;;5066331;28;20436;-74
2021/06/15 00:57:33;;;;;;;7.10;4.60;;;18.40;76.20;;;;;;5071050;28;20871;-74
2021/06/15 00:59:58;;;;;;;9.17;4.23;;;18.30;77.40;;;;;;5071527;28;20427;-76
2021/06/15 01:02:30;;;;;;;8.70;5.27;;;18.30;77.10;;;;;;5072982;28;20704;-75
2021/06/15 01:05:01;;;;;;;9.70;4.63;;;18.20;76.80;;;;;;5071466;28;20287;-76
2021/06/15 01:07:31;;;;;;;9.83;5.73;;;18.20;78.00;;;;;;5071877;28;20500;-76
2021/06/15 01:10:02;;;;;;;12.60;5.43;;;18.20;78.40;;;;;;5068769;28;20415;-75
2021/06/15 01:12:48;;;;;;;7.63;4.53;;;18.10;78.40;;;;;;5062306;28;20465;-75
2021/06/15 01:15:46;;;;;;;7.07;4.33;;;18.10;78.70;;;;;;5068649;28;20831;-74
2021/06/15 01:18:17;;;;;;;6.63;4.00;;;18.10;78.90;;;;;;5064675;28;20432;-75
2021/06/15 01:20:51;;;;;;;7.40;4.60;;;18.00;78.70;;;;;;5065387;28;20499;-75
2021/06/15 01:23:22;;;;;;;11.53;4.60;;;18.00;78.40;;;;;;5071904;28;20927;-74
2021/06/15 01:26:00;;;;;;;8.50;4.70;;;18.00;78.30;;;;;;5072409;28;20430;-75
2021/06/15 01:28:37;;;;;;;9.70;5.20;;;18.00;78.40;;;;;;5067005;28;20421;-75
2021/06/15 01:31:09;;;;;;;8.60;5.40;;;18.00;78.40;;;;;;5061269;28;20421;-75
2021/06/15 01:33:43;;;;;;;5.07;4.00;;;17.90;79.00;;;;;;5070902;28;20557;-75
2021/06/15 01:36:11;;;;;;;9.47;5.20;;;17.90;79.30;;;;;;5071866;28;20473;-74
2021/06/15 01:38:42;;;;;;;5.77;4.40;;;17.90;79.20;;;;;;5071418;28;20419;-74
2021/06/15 01:41:11;;;;;;;11.43;4.60;;;17.90;79.30;;;;;;5064256;28;20460;-75
2021/06/15 01:43:43;;;;;;;9.83;4.83;;;17.90;79.30;;;;;;5067836;28;20626;-75
2021/06/15 01:46:11;;;;;;;9.30;4.73;;;17.90;79.70;;;;;;5071203;28;20427;-73
2021/06/15 01:48:49;;;;;;;7.00;4.47;;;17.90;79.70;;;;;;5070735;28;20586;-73
2021/06/15 01:51:18;;;;;;;6.83;4.00;;;17.90;79.60;;;;;;5068777;28;20431;-74
2021/06/15 01:53:48;;;;;;;8.43;4.63;;;17.80;79.70;;;;;;5074195;28;20495;-75
2021/06/15 01:56:16;;;;;;;8.90;4.90;;;17.80;79.90;;;;;;5074517;28;20469;-75
2021/06/15 01:58:47;;;;;;;5.40;4.07;;;17.80;80.00;;;;;;5071961;28;20426;-73
2021/06/15 02:01:14;;;;;;;7.83;4.73;;;17.70;80.30;;;;;;5071310;28;20429;-74
2021/06/15 02:03:41;;;;;;;7.03;4.90;;;17.70;80.30;;;;;;5069919;28;20452;-74
2021/06/15 02:06:08;;;;;;;5.87;4.70;;;17.60;80.80;;;;;;5069865;28;20906;-76
2021/06/15 02:08:55;;;;;;;8.23;4.80;;;17.70;80.90;;;;;;5070700;28;20419;-74
2021/06/15 02:11:23;;;;;;;8.30;5.00;;;17.70;80.90;;;;;;5064918;28;20427;-74
2021/06/15 02:13:50;;;;;;;9.00;5.40;;;17.70;80.60;;;;;;5069850;28;20465;-74
2021/06/15 02:16:16;;;;;;;7.80;4.50;;;17.70;80.30;;;;;;5070706;28;20468;-75
2021/06/15 02:18:51;;;;;;;8.07;5.87;;;17.70;80.30;;;;;;5070674;28;20477;-75
2021/06/15 02:21:18;;;;;;;10.67;5.30;;;17.60;80.80;;;;;;5063495;28;20417;-76
2021/06/15 02:23:47;;;;;;;7.50;4.57;;;17.50;81.20;;;;;;5070733;28;20434;-75
2021/06/15 02:26:16;;;;;;;7.17;4.70;;;17.50;81.50;;;;;;5066782;28;20433;-75
2021/06/15 02:28:43;;;;;;;10.07;5.57;;;17.50;82.20;;;;;;5069253;28;20459;-75
2021/06/15 02:31:22;;;;;;;11.07;5.90;;;17.30;83.00;;;;;;5064892;28;20483;-76
2021/06/15 02:33:52;;;;;;;12.13;5.60;;;17.10;83.70;;;;;;5068100;28;20500;-74
2021/06/15 02:36:29;;;;;;;8.50;5.67;;;17.00;84.10;;;;;;5070261;28;20466;-75
2021/06/15 02:38:59;;;;;;;9.97;6.60;;;17.00;84.40;;;;;;5070235;28;20413;-76
2021/06/15 02:41:27;;;;;;;9.10;5.40;;;17.00;84.40;;;;;;5063613;28;20425;-76
2021/06/15 02:44:00;;;;;;;12.43;6.00;;;17.00;84.60;;;;;;5066339;28;20507;-75
2021/06/15 02:46:28;;;;;;;10.40;5.50;;;17.00;84.70;;;;;;5070013;28;20965;-75
2021/06/15 02:48:58;;;;;;;12.23;4.83;;;17.00;84.30;;;;;;5067412;28;20939;-74
2021/06/15 02:51:29;;;;;;;10.77;4.77;;;17.00;84.00;;;;;;5072040;28;20433;-76
2021/06/15 02:54:22;;;;;;;7.40;5.33;;;17.00;83.80;;;;;;5071085;28;20461;-77
2021/06/15 02:56:54;;;;;;;7.90;4.80;;;17.00;83.80;;;;;;5063977;28;20458;-74
2021/06/15 02:59:20;;;;;;;7.40;4.93;;;17.00;83.60;;;;;;5070624;28;20427;-74
2021/06/15 03:01:51;;;;;;;8.03;4.80;;;17.00;83.60;;;;;;5069596;28;20924;-74
2021/06/15 03:04:18;;;;;;;6.03;4.83;;;17.10;82.70;;;;;;5068476;28;20430;-75
2021/06/15 03:06:44;;;;;;;6.90;4.70;;;17.10;82.50;;;;;;5064577;28;20427;-76
2021/06/15 03:09:11;;;;;;;8.83;5.40;;;17.10;82.70;;;;;;5067346;28;20453;-75
2021/06/15 03:11:42;;;;;;;12.87;5.63;;;17.10;82.70;;;;;;5068719;28;20453;-76
2021/06/15 03:14:24;;;;;;;9.30;5.10;;;17.10;82.80;;;;;;5070489;28;20506;-76
2021/06/15 03:16:58;;;;;;;8.03;5.30;;;17.00;83.40;;;;;;5072483;28;20471;-77
2021/06/15 03:19:40;;;;;;;10.67;5.30;;;16.80;84.40;;;;;;5073070;28;20411;-75
2021/06/15 03:22:12;;;;;;;11.00;5.50;;;16.80;84.90;;;;;;5074174;28;20425;-77
2021/06/15 03:24:44;;;;;;;8.87;5.50;;;16.80;84.70;;;;;;5072793;28;20510;-76
2021/06/15 03:27:12;;;;;;;10.17;6.40;;;16.80;84.70;;;;;;5071501;28;20464;-75
2021/06/15 03:29:40;;;;;;;8.83;5.47;;;16.80;84.60;;;;;;5074127;28;20429;-76
2021/06/15 03:32:09;;;;;;;7.87;6.10;;;16.80;84.60;;;;;;5074453;28;20429;-76
2021/06/15 03:34:42;;;;;;;6.80;5.03;;;16.80;84.70;;;;;;5074722;28;20472;-76
2021/06/15 03:37:12;;;;;;;7.77;5.20;;;16.70;84.90;;;;;;5075194;28;20482;-77
2021/06/15 03:39:39;;;;;;;8.97;5.40;;;16.60;85.30;;;;;;5075214;28;20420;-77
2021/06/15 03:42:07;;;;;;;11.70;6.00;;;16.50;85.60;;;;;;5067907;28;21251;-75
2021/06/15 03:44:34;;;;;;;10.43;6.30;;;16.50;85.60;;;;;;5075222;28;20441;-77
2021/06/15 03:47:00;;;;;;;9.90;6.50;;;16.50;85.70;;;;;;5066420;28;20433;-75
2021/06/15 03:49:28;;;;;;;9.23;6.00;;;16.50;85.90;;;;;;5073969;28;20422;-74
2021/06/15 03:51:59;;;;;;;12.20;7.20;;;16.40;86.20;;;;;;5072882;28;20452;-74
2021/06/15 03:54:28;;;;;;;8.53;5.93;;;16.40;86.30;;;;;;5072579;28;20442;-75
2021/06/15 03:56:59;;;;;;;8.73;6.20;;;16.40;86.30;;;;;;5068405;28;20527;-75
2021/06/15 03:59:26;;;;;;;10.63;5.30;;;16.50;86.00;;;;;;5078284;28;20422;-73
2021/06/15 04:01:55;;;;;;;14.73;6.23;;;16.50;85.90;;;;;;5072474;28;20429;-74
2021/06/15 04:04:22;;;;;;;8.37;5.83;;;16.60;85.60;;;;;;5074080;28;20438;-74
2021/06/15 04:06:50;;;;;;;9.73;5.83;;;16.60;85.30;;;;;;5075897;28;20427;-75
2021/06/15 04:09:33;;;;;;;9.53;6.30;;;16.70;85.30;;;;;;5075694;28;20880;-74
2021/06/15 04:12:00;;;;;;;9.77;6.33;;;16.70;85.30;;;;;;5074653;28;20527;-74
2021/06/15 04:14:28;;;;;;;12.47;6.40;;;16.80;84.70;;;;;;5075282;28;20442;-76
2021/06/15 04:16:56;;;;;;;10.57;6.60;;;16.80;84.40;;;;;;5074870;28;20465;-74
2021/06/15 04:19:27;;;;;;;9.77;5.57;;;16.80;84.40;;;;;;5075298;28;20421;-74
2021/06/15 04:21:57;;;;;;;9.93;6.10;;;16.80;84.10;;;;;;5072985;28;20414;-74
2021/06/15 04:24:25;;;;;;;9.47;5.80;;;16.90;84.00;;;;;;5073150;28;20444;-76
2021/06/15 04:26:54;;;;;;;10.40;6.70;;;16.90;84.30;;;;;;5071468;28;20793;-74
2021/06/15 04:29:21;;;;;;;8.33;5.27;;;17.00;83.40;;;;;;5072988;28;20476;-76
2021/06/15 04:31:52;;;;;;;8.03;5.73;;;17.10;83.40;;;;;;5072291;28;20421;-74
2021/06/15 04:34:21;;;;;;;10.13;6.07;;;17.10;83.10;;;;;;5071784;28;20461;-74
2021/06/15 04:36:48;;;;;;;9.37;5.93;;;17.10;83.10;;;;;;5072546;28;20454;-75
2021/06/15 04:39:16;;;;;;;8.67;5.80;;;17.20;83.40;;;;;;5071502;28;20422;-78
2021/06/15 04:42:00;;;;;;;12.77;6.40;;;17.20;83.10;;;;;;5073134;28;20556;-74
2021/06/15 04:44:30;;;;;;;11.83;5.83;;;17.30;83.10;;;;;;5072184;28;20441;-74
2021/06/15 04:47:01;;;;;;;10.00;5.93;;;17.40;83.00;;;;;;5074597;28;20540;-73
2021/06/15 04:49:36;;;;;;;19.43;6.67;;;17.50;82.70;;;;;;5071901;28;20578;-73
2021/06/15 04:52:04;;;;;;;15.10;6.67;;;17.60;82.20;;;;;;5072995;28;20845;-74
2021/06/15 04:54:38;;;;;;;10.60;5.60;;;17.70;81.40;;;;;;5073402;28;20835;-74
2021/06/15 04:57:10;;;;;;;9.47;5.43;;;17.80;81.10;;;;;;5065188;28;20465;-75
2021/06/15 04:59:37;;;;;;;13.00;6.70;;;17.80;80.50;;;;;;5059648;28;20423;-73
2021/06/15 05:02:06;;;;;;;8.43;5.97;;;17.90;80.80;;;;;;5086370;28;20418;-74
2021/06/15 05:04:33;;;;;;;7.97;5.70;;;17.90;80.80;;;;;;5081304;28;20441;-74
2021/06/15 05:07:00;;;;;;;8.93;5.47;;;18.00;80.20;;;;;;5071661;28;20459;-74
2021/06/15 05:09:29;;;;;;;14.03;5.30;;;18.00;79.50;;;;;;5071933;28;20791;-74
2021/06/15 05:11:56;;;;;;;8.77;5.30;;;18.10;78.90;;;;;;5072811;28;20429;-75
2021/06/15 05:14:34;;;;;;;12.00;6.53;;;18.10;79.00;;;;;;5072933;28;20560;-74
2021/06/15 05:17:07;;;;;;;9.67;5.50;;;18.20;79.60;;;;;;5073291;28;20498;-75
2021/06/15 05:19:33;;;;;;;11.10;5.57;;;18.30;79.60;;;;;;5070721;28;20438;-75
2021/06/15 05:22:11;;;;;;;10.30;5.97;;;18.30;79.50;;;;;;5071491;28;20784;-75
2021/06/15 05:24:53;;;;;;;8.70;6.00;;;18.40;79.30;;;;;;5072412;28;20196;-76
2021/06/15 05:27:21;;;;;;;10.70;5.80;;;18.40;79.30;;;;;;5067326;28;20422;-75
2021/06/15 05:29:47;;;;;;;9.60;5.90;;;18.50;79.20;;;;;;5072840;28;20438;-74
2021/06/15 05:32:13;;;;;;;8.50;5.93;;;18.60;78.70;;;;;;5070792;28;20435;-75
2021/06/15 05:34:39;;;;;;;12.47;6.87;;;18.60;78.30;;;;;;5072242;28;20451;-74
2021/06/15 05:37:07;;;;;;;8.53;5.63;;;18.70;78.10;;;;;;5072126;28;20256;-74
2021/06/15 05:39:33;;;;;;;10.80;6.33;;;18.80;77.80;;;;;;5070379;28;20426;-74
2021/06/15 05:41:59;;;;;;;9.87;6.10;;;18.90;77.40;;;;;;5071606;28;20474;-75
2021/06/15 05:44:25;;;;;;;9.90;6.23;;;18.90;77.10;;;;;;5072101;28;20434;-75
2021/06/15 05:46:51;;;;;;;11.83;7.10;;;19.00;76.50;;;;;;5071851;28;20184;-75
2021/06/15 05:49:17;;;;;;;9.60;5.60;;;19.00;76.40;;;;;;5072016;28;20444;-75
2021/06/15 05:51:42;;;;;;;12.23;6.47;;;19.00;76.10;;;;;;5071135;28;20197;-74
2021/06/15 05:54:09;;;;;;;13.27;6.10;;;19.20;75.40;;;;;;5076708;28;20293;-75
2021/06/15 05:56:34;;;;;;;13.50;7.30;;;19.30;74.80;;;;;;5072105;28;20207;-75
2021/06/15 05:59:01;;;;;;;12.67;6.80;;;19.30;74.90;;;;;;5071756;28;20488;-74
2021/06/15 06:01:27;;;;;;;16.83;6.73;;;19.30;75.40;;;;;;5071163;28;20700;-76
2021/06/15 06:04:13;;;;;;;14.00;6.10;;;19.40;75.20;;;;;;5075836;28;20438;-74
2021/06/15 06:09:23;;;;;;;8.47;6.13;;;19.70;74.60;;;;;;5074723;28;20472;-74
2021/06/15 06:11:49;;;;;;;12.17;6.10;;;19.80;74.30;;;;;;5071063;28;20932;-74
2021/06/15 06:14:15;;;;;;;12.03;6.53;;;19.90;73.00;;;;;;5075661;28;20226;-74
2021/06/15 06:16:43;;;;;;;10.00;6.40;;;19.90;73.50;;;;;;5078066;28;20206;-74
2021/06/15 06:19:11;;;;;;;13.77;6.27;;;20.00;73.70;;;;;;5070086;28;20418;-75
2021/06/15 06:21:37;;;;;;;11.33;6.23;;;20.10;74.20;;;;;;5069145;28;20411;-74
2021/06/15 06:24:05;;;;;;;9.73;6.53;;;20.30;73.70;;;;;;5067074;28;20426;-75
2021/06/15 06:26:32;;;;;;;11.67;6.53;;;20.30;73.70;;;;;;5070907;28;20457;-77
2021/06/15 06:28:58;;;;;;;13.50;6.63;;;20.40;73.30;;;;;;5068387;28;20406;-74
2021/06/15 06:31:24;;;;;;;15.73;7.17;;;20.60;73.00;;;;;;5067388;28;20425;-74
2021/06/15 06:33:49;;;;;;;11.90;6.83;;;20.70;72.70;;;;;;5071028;28;20227;-74
2021/06/15 06:36:16;;;;;;;15.30;7.10;;;20.50;72.70;;;;;;5069888;28;20461;-75
2021/06/15 06:38:48;;;;;;;12.20;6.70;;;20.60;73.00;;;;;;5071435;28;20896;-75
2021/06/15 06:41:13;;;;;;;11.73;6.00;;;20.70;72.70;;;;;;5069217;28;20584;-75
2021/06/15 06:43:39;;;;;;;12.33;6.87;;;20.80;71.60;;;;;;5071995;28;20535;-76
2021/06/15 06:46:05;;;;;;;11.10;6.13;;;20.90;71.00;;;;;;5071854;28;20175;-74
2021/06/15 06:48:30;;;;;;;11.40;6.40;;;21.10;70.10;;;;;;5071594;28;20234;-76
2021/06/15 06:50:56;;;;;;;13.30;6.90;;;21.10;70.20;;;;;;5069215;28;20176;-76
2021/06/15 06:53:22;;;;;;;14.37;7.33;;;21.20;69.70;;;;;;5072091;28;20183;-76
2021/06/15 06:55:48;;;;;;;9.30;5.90;;;21.30;69.50;;;;;;5071109;28;20176;-75
2021/06/15 06:58:13;;;;;;;11.97;6.23;;;21.40;68.80;;;;;;5070397;28;20204;-76
2021/06/15 07:00:39;;;;;;;8.70;5.60;;;21.40;68.30;;;;;;5071649;28;20183;-75
2021/06/15 07:03:05;;;;;;;11.70;7.10;;;21.60;68.00;;;;;;5071761;28;20260;-77
2021/06/15 07:05:30;;;;;;;13.63;6.13;;;21.50;68.30;;;;;;5071816;28;20756;-77
2021/06/15 07:07:56;;;;;;;10.97;6.67;;;21.50;68.50;;;;;;5071518;28;20649;-77
2021/06/15 07:10:22;;;;;;;10.70;5.97;;;21.60;68.00;;;;;;5071805;28;20563;-76
2021/06/15 07:12:49;;;;;;;8.83;6.33;;;21.70;68.20;;;;;;5070965;28;20190;-74
2021/06/15 07:15:16;;;;;;;13.00;6.40;;;21.80;67.90;;;;;;5070157;28;20741;-76
2021/06/15 07:17:42;;;;;;;10.90;6.20;;;21.90;67.30;;;;;;5070366;28;20468;-74
2021/06/15 07:20:08;;;;;;;8.97;5.60;;;21.90;67.20;;;;;;5069811;28;20937;-76
2021/06/15 07:22:34;;;;;;;13.07;6.90;;;21.90;67.60;;;;;;5070529;28;20182;-76
2021/06/15 07:25:00;;;;;;;12.43;5.80;;;22.00;68.00;;;;;;5071238;28;20532;-76
2021/06/15 07:27:26;;;;;;;12.27;7.00;;;22.10;67.60;;;;;;5071006;28;20528;-77
2021/06/15 07:29:52;;;;;;;15.60;7.60;;;22.20;67.70;;;;;;5071836;28;20421;-75
2021/06/15 07:32:17;;;;;;;12.63;6.90;;;22.40;67.60;;;;;;5069660;28;20236;-75
2021/06/15 07:34:43;;;;;;;14.30;7.07;;;22.60;67.30;;;;;;5071706;28;20243;-76
2021/06/15 07:37:09;;;;;;;11.33;6.90;;;22.70;67.00;;;;;;5070710;28;20212;-76
2021/06/15 07:39:35;;;;;;;9.67;6.10;;;22.70;66.70;;;;;;5070558;28;20180;-76
2021/06/15 07:42:01;;;;;;;12.97;5.97;;;22.60;67.00;;;;;;5070863;28;20193;-78
2021/06/15 07:44:27;;;;;;;12.87;7.10;;;22.80;66.60;;;;;;5072573;28;20435;-75
2021/06/15 07:46:55;;;;;;;9.60;7.10;;;22.90;66.10;;;;;;5071357;28;20420;-77
2021/06/15 07:49:21;;;;;;;12.50;6.97;;;23.10;66.10;;;;;;5070755;28;20416;-75
2021/06/15 07:51:47;;;;;;;16.53;6.80;;;23.10;65.60;;;;;;5069224;28;20470;-76
2021/06/15 07:54:13;;;;;;;10.10;6.60;;;23.20;65.00;;;;;;5072191;28;20443;-76
2021/06/15 07:56:39;;;;;;;15.40;6.80;;;23.30;65.00;;;;;;5071264;28;20814;-74
2021/06/15 07:59:05;;;;;;;13.03;6.87;;;23.20;64.80;;;;;;5071272;28;20223;-76
2021/06/15 08:01:30;;;;;;;11.10;6.70;;;23.40;64.80;;;;;;5072212;28;20247;-78
2021/06/15 08:03:56;;;;;;;12.23;6.00;;;23.40;63.90;;;;;;5079453;28;20247;-73
2021/06/15 08:06:23;;;;;;;11.60;5.90;;;23.40;64.50;;;;;;5086140;28;20627;-75
2021/06/15 08:08:49;;;;;;;11.53;6.40;;;23.50;63.70;;;;;;5082137;28;20218;-75
2021/06/15 08:11:15;;;;;;;13.87;6.40;;;23.50;63.40;;;;;;5078437;28;20420;-75
2021/06/15 08:13:41;;;;;;;12.13;6.80;;;23.50;63.20;;;;;;5083668;28;20501;-74
2021/06/15 08:16:07;;;;;;;9.80;6.73;;;23.60;63.20;;;;;;5085137;28;20881;-75
2021/06/15 08:18:33;;;;;;;41.13;11.50;;;23.70;62.60;;;;;;5082387;28;20408;-76
2021/06/15 08:20:59;;;;;;;12.73;8.23;;;23.80;63.10;;;;;;5074310;28;20429;-75
2021/06/15 08:23:27;;;;;;;13.77;6.63;;;23.90;61.20;;;;;;5075962;28;20191;-77
2021/06/15 08:25:53;;;;;;;9.27;5.77;;;24.10;60.40;;;;;;5076055;28;20422;-76
2021/06/15 08:28:20;;;;;;;13.17;6.20;;;24.20;59.60;;;;;;5077559;28;20446;-75
2021/06/15 08:30:46;;;;;;;11.63;6.47;;;24.40;58.80;;;;;;5078869;28;20508;-75
2021/06/15 08:33:12;;;;;;;11.60;6.10;;;24.30;57.80;;;;;;5074969;28;20444;-76
2021/06/15 08:35:39;;;;;;;14.50;5.67;;;24.50;57.20;;;;;;5072981;28;20458;-76
2021/06/15 08:38:05;;;;;;;11.53;5.50;;;24.50;56.40;;;;;;5074803;28;20515;-76
2021/06/15 08:40:31;;;;;;;18.40;6.90;;;24.70;55.80;;;;;;5074544;28;20434;-75
2021/06/15 08:42:57;;;;;;;11.40;6.13;;;24.70;56.10;;;;;;5074928;28;20419;-75
2021/06/15 08:45:24;;;;;;;12.70;6.07;;;24.80;55.60;;;;;;5076698;28;20455;-74
2021/06/15 08:47:52;;;;;;;11.10;5.60;;;24.70;54.10;;;;;;5075014;28;20431;-76
2021/06/15 08:50:20;;;;;;;8.40;5.10;;;24.80;54.00;;;;;;5075877;28;20953;-76
2021/06/15 08:52:48;;;;;;;11.33;5.43;;;24.80;53.00;;;;;;5077124;28;20426;-76
2021/06/15 08:55:15;;;;;;;9.20;5.13;;;25.00;52.20;;;;;;5079498;28;20448;-75
2021/06/15 08:57:42;;;;;;;8.70;5.17;;;25.10;51.30;;;;;;5083037;28;21025;-76
2021/06/15 09:00:10;;;;;;;8.50;5.07;;;25.00;50.30;;;;;;5078292;28;20418;-76
2021/06/15 09:02:44;;;;;;;10.63;5.33;;;25.00;49.30;;;;;;5074157;28;20420;-74
2021/06/15 09:05:14;;;;;;;8.10;4.90;;;25.00;49.80;;;;;;5074719;28;20435;-78
2021/06/15 09:08:02;;;;;;;12.40;5.20;;;25.10;50.10;;;;;;5075064;28;20420;-77
2021/06/15 09:10:46;;;;;;;10.80;5.03;;;25.20;51.00;;;;;;5074349;28;21048;-77
2021/06/15 09:13:38;;;;;;;7.00;4.90;;;25.30;51.30;;;;;;5066510;28;20420;-76
2021/06/15 09:16:25;;;;;;;16.47;6.40;;;25.30;51.00;;;;;;5066941;28;20418;-78
2021/06/15 09:18:53;;;;;;;6.93;5.17;;;25.30;51.40;;;;;;5074601;28;20484;-75
2021/06/15 09:21:31;;;;;;;11.30;5.40;;;25.50;51.00;;;;;;5073610;28;21095;-76
2021/06/15 09:24:13;;;;;;;11.80;5.40;;;25.60;50.70;;;;;;5066140;28;20491;-77
2021/06/15 09:26:55;;;;;;;7.87;5.10;;;25.60;50.70;;;;;;5073095;28;20405;-74
2021/06/15 09:29:34;;;;;;;8.93;5.17;;;25.80;50.30;;;;;;5071451;28;20482;-75
2021/06/15 09:32:00;;;;;;;18.13;5.37;;;25.80;50.30;;;;;;5072544;28;20420;-74
2021/06/15 09:34:25;;;;;;;8.70;5.03;;;25.90;49.90;;;;;;5072944;28;20974;-76
2021/06/15 09:36:54;;;;;;;11.00;5.07;;;26.10;49.00;;;;;;5071743;28;20746;-75
2021/06/15 09:39:20;;;;;;;6.90;5.00;;;26.20;48.50;;;;;;5072743;28;20207;-76
2021/06/15 09:41:48;;;;;;;8.43;4.80;;;26.10;47.40;;;;;;5072523;28;20417;-77
2021/06/15 09:44:24;;;;;;;12.90;5.10;;;25.90;46.60;;;;;;5072563;28;20196;-76
2021/06/15 09:46:58;;;;;;;6.10;4.10;;;26.00;46.90;;;;;;5072219;28;20921;-75
2021/06/15 09:49:39;;;;;;;7.67;4.77;;;26.10;46.70;;;;;;5072332;28;21706;-74
2021/06/15 09:52:15;;;;;;;11.37;4.93;;;26.10;47.10;;;;;;5080245;28;20427;-76
2021/06/15 09:54:53;;;;;;;7.40;4.73;;;26.30;46.70;;;;;;5072067;28;20439;-75
2021/06/15 09:57:25;;;;;;;10.80;5.67;;;26.20;46.60;;;;;;5072097;28;20470;-76
2021/06/15 10:00:13;;;;;;;6.50;4.50;;;26.20;45.90;;;;;;5072419;28;20420;-74
2021/06/15 10:02:54;;;;;;;8.80;5.20;;;26.20;46.50;;;;;;5071145;28;20943;-75
2021/06/15 10:05:26;;;;;;;7.37;5.10;;;26.30;46.90;;;;;;5070630;28;20536;-76
2021/06/15 10:07:53;;;;;;;12.43;5.20;;;26.50;46.30;;;;;;5072853;28;20823;-76
2021/06/15 10:10:21;;;;;;;7.17;4.53;;;26.40;46.30;;;;;;5072424;28;20419;-75
2021/06/15 10:12:49;;;;;;;6.07;4.50;;;26.20;44.30;;;;;;5074296;28;20489;-74
2021/06/15 10:15:15;;;;;;;8.27;4.20;;;26.20;44.90;;;;;;5078498;28;20447;-76
2021/06/15 10:17:43;;;;;;;5.40;4.00;;;26.40;43.70;;;;;;5072763;28;20473;-75
2021/06/15 10:20:09;;;;;;;7.70;3.90;;;26.70;43.10;;;;;;5070795;28;20428;-75
2021/06/15 10:22:36;;;;;;;9.03;5.00;;;27.20;43.40;;;;;;5071479;28;20409;-74
2021/06/15 10:25:04;;;;;;;6.23;4.37;;;27.30;42.00;;;;;;5071463;28;20448;-76
2021/06/15 10:27:31;;;;;;;8.20;4.50;;;27.70;41.40;;;;;;5071166;28;20520;-74
2021/06/15 10:29:57;;;;;;;5.60;4.10;;;27.80;40.80;;;;;;5071301;28;20473;-74
2021/06/15 10:32:25;;;;;;;5.47;3.80;;;27.60;40.00;;;;;;5070800;28;20434;-74
2021/06/15 10:35:04;;;;;;;6.17;4.37;;;27.70;39.80;;;;;;5071383;28;20468;-74
2021/06/15 10:37:32;;;;;;;9.60;4.43;;;28.10;39.50;;;;;;5070889;28;20514;-74
2021/06/15 10:40:01;;;;;;;6.00;4.40;;;28.00;39.50;;;;;;5069958;28;20506;-74
2021/06/15 10:42:27;;;;;;;6.40;3.63;;;28.00;39.50;;;;;;5069209;28;20418;-75
2021/06/15 10:45:11;;;;;;;5.10;4.00;;;28.50;39.40;;;;;;5071248;28;20477;-75
2021/06/15 10:47:38;;;;;;;7.33;3.90;;;29.10;37.20;;;;;;5070838;28;20418;-75
2021/06/15 10:50:04;;;;;;;8.43;4.20;;;29.10;37.10;;;;;;5071436;28;20913;-74
2021/06/15 10:53:03;;;;;;;9.97;4.83;;;29.10;37.00;;;;;;5070844;28;20422;-75
2021/06/15 10:55:50;;;;;;;7.33;4.50;;;29.30;38.30;;;;;;5067485;28;20434;-74
2021/06/15 10:58:29;;;;;;;6.10;4.53;;;28.40;38.60;;;;;;5065844;28;20510;-76
2021/06/15 11:00:54;;;;;;;6.43;3.97;;;28.20;39.90;;;;;;5069509;28;20467;-75
2021/06/15 11:03:23;;;;;;;4.90;4.00;;;28.50;38.70;;;;;;5071646;28;20434;-75
2021/06/15 11:05:59;;;;;;;5.30;3.93;;;28.20;39.00;;;;;;5072461;28;20573;-77
2021/06/15 11:08:25;;;;;;;7.77;4.57;;;28.00;38.30;;;;;;5071679;28;20413;-75
2021/06/15 11:10:57;;;;;;;6.27;4.30;;;28.20;38.30;;;;;;5071231;28;20418;-75
2021/06/15 11:13:41;;;;;;;5.20;3.53;;;28.20;37.20;;;;;;5072771;28;20266;-75
2021/06/15 11:16:24;;;;;;;5.03;3.57;;;28.50;37.80;;;;;;5074295;28;20433;-75
2021/06/15 11:19:08;;;;;;;6.17;3.80;;;28.80;37.80;;;;;;5073508;28;20414;-77
2021/06/15 11:21:54;;;;;;;5.20;4.23;;;28.50;37.90;;;;;;5072045;28;20427;-76
2021/06/15 11:24:46;;;;;;;6.03;4.70;;;28.60;38.30;;;;;;5079918;28;20461;-75
2021/06/15 11:27:19;;;;;;;5.40;3.70;;;28.90;37.00;;;;;;5081822;28;20491;-73
2021/06/15 11:29:46;;;;;;;6.10;3.30;;;28.40;37.10;;;;;;5070336;28;20932;-74
2021/06/15 11:32:15;;;;;;;5.47;4.03;;;28.00;36.60;;;;;;5069430;28;20488;-75
2021/06/15 11:34:42;;;;;;;6.17;3.70;;;27.80;38.00;;;;;;5070118;28;20489;-75
2021/06/15 11:37:20;;;;;;;6.50;3.70;;;27.60;38.20;;;;;;5071972;28;20493;-74
2021/06/15 11:39:47;;;;;;;5.07;3.40;;;27.80;38.20;;;;;;5075517;28;20783;-74
2021/06/15 11:42:29;;;;;;;4.90;3.47;;;28.00;36.80;;;;;;5073427;28;20558;-76
2021/06/15 11:45:00;;;;;;;7.37;4.20;;;28.30;35.70;;;;;;5075108;28;20442;-75
2021/06/15 11:47:30;;;;;;;4.00;3.23;;;28.60;35.50;;;;;;5075380;28;20855;-76
2021/06/15 11:50:22;;;;;;;4.43;3.30;;;28.80;35.20;;;;;;5075276;28;20418;-74
2021/06/15 11:52:52;;;;;;;3.93;3.77;;;29.40;34.70;;;;;;5078621;28;20430;-75
2021/06/15 11:55:19;;;;;;;6.50;3.80;;;29.70;34.40;;;;;;5083596;28;20558;-75
2021/06/15 11:57:44;;;;;;;7.23;4.13;;;29.30;34.90;;;;;;5077200;28;20462;-74
2021/06/15 12:00:16;;;;;;;6.17;3.30;;;29.00;34.90;;;;;;5076509;28;20961;-74
2021/06/15 12:02:42;;;;;;;5.30;3.60;;;28.60;35.10;;;;;;5077230;28;20261;-75
2021/06/15 12:05:14;;;;;;;5.73;3.40;;;28.40;35.20;;;;;;5086115;28;20849;-75
2021/06/15 12:07:54;;;;;;;5.57;3.60;;;28.60;36.00;;;;;;5082068;28;20442;-75
2021/06/15 12:10:25;;;;;;;4.03;3.60;;;29.50;34.90;;;;;;5075933;28;20454;-74
2021/06/15 12:13:02;;;;;;;6.43;3.57;;;30.00;32.50;;;;;;5082992;28;20425;-74
2021/06/15 12:15:39;;;;;;;7.57;5.00;;;29.80;32.90;;;;;;5085890;28;20516;-76
2021/06/15 12:18:14;;;;;;;5.00;3.60;;;29.80;33.60;;;;;;5071381;28;20983;-75
2021/06/15 12:20:43;;;;;;;4.83;3.40;;;29.10;34.70;;;;;;5079123;28;20425;-76
2021/06/15 12:23:23;;;;;;;6.77;3.13;;;29.30;34.30;;;;;;5076887;28;20437;-76
2021/06/15 12:25:49;;;;;;;7.43;3.73;;;29.80;33.90;;;;;;5073203;28;20453;-75
2021/06/15 12:28:18;;;;;;;8.57;3.90;;;30.40;33.20;;;;;;5074932;28;20429;-76
2021/06/15 12:30:44;;;;;;;5.23;3.33;;;30.40;32.40;;;;;;5074860;28;20422;-75
2021/06/15 12:33:12;;;;;;;17.47;4.30;;;30.40;32.90;;;;;;5073823;28;21914;-75
2021/06/15 12:35:38;;;;;;;6.30;4.10;;;30.60;32.40;;;;;;5086455;28;20453;-75
2021/06/15 12:38:14;;;;;;;6.43;3.50;;;30.10;33.50;;;;;;5087739;28;20466;-74
2021/06/15 12:40:42;;;;;;;7.30;3.60;;;30.20;32.70;;;;;;5080233;28;20830;-76
2021/06/15 12:43:09;;;;;;;5.03;3.00;;;30.30;32.30;;;;;;5073813;28;20497;-76
2021/06/15 12:45:38;;;;;;;6.67;3.70;;;31.00;31.30;;;;;;5063130;28;20447;-75
2021/06/15 12:48:23;;;;;;;4.80;3.60;;;31.40;30.40;;;;;;5073123;28;20485;-74
2021/06/15 12:51:07;;;;;;;13.33;6.33;;;32.00;29.60;;;;;;5073027;28;20484;-75
2021/06/15 12:53:35;;;;;;;8.40;3.87;;;32.60;29.20;;;;;;5073558;28;20509;-77
2021/06/15 12:56:22;;;;;;;5.77;3.70;;;32.30;28.60;;;;;;5073234;28;20437;-76
2021/06/15 12:58:51;;;;;;;4.50;3.57;;;32.70;28.60;;;;;;5073618;28;20430;-75
2021/06/15 13:01:23;;;;;;;4.63;3.70;;;32.70;28.80;;;;;;5067444;28;20422;-76